Wetterdaten: Woche 13.12.10 - 19.12.10 (KW50)
Datum Zeit Temp. A. Feuchte A. Luftdruck Regen Wind Richtung Taupunkt Windchill Windben
13.12.2010 00:00 1,8 C 88 % 1015,3 hPa 0,0 l/m 0,0 km/h W-NW 0,0 C 1,8 C 0,0 km/h
13.12.2010 01:00 1,6 C 88 % 1015,4 hPa 0,0 l/m 3,2 km/h N -0,2 C 1,6 C 1,8 km/h
13.12.2010 02:00 1,6 C 89 % 1015,8 hPa 0,0 l/m 4,5 km/h N-NO -0,0 C 1,6 C 2,5 km/h
13.12.2010 03:00 1,1 C 89 % 1016,3 hPa 0,0 l/m 0,0 km/h N-NO -0,5 C 1,1 C 0,0 km/h
13.12.2010 04:00 0,6 C 89 % 1016,4 hPa 0,0 l/m 0,0 km/h N-NO -1,0 C 0,6 C 0,0 km/h
13.12.2010 05:00 0,2 C 89 % 1016,9 hPa 0,0 l/m 0,0 km/h O-NO -1,4 C 0,2 C 0,0 km/h
13.12.2010 06:00 -0,4 C 87 % 1017,7 hPa 0,0 l/m 0,0 km/h N-NO -2,3 C -0,4 C 0,0 km/h
13.12.2010 07:00 -1,1 C 86 % 1018,3 hPa 0,0 l/m 0,0 km/h NO -3,1 C -1,1 C 0,0 km/h
13.12.2010 08:00 -2,2 C 87 % 1019,2 hPa 0,0 l/m 0,0 km/h N -4,1 C -2,2 C 0,0 km/h
13.12.2010 09:00 0,8 C 87 % 1020,0 hPa 0,0 l/m 0,0 km/h N-NO -1,1 C 0,8 C 0,0 km/h
13.12.2010 10:00 0,4 C 76 % 1020,6 hPa 0,0 l/m 0,0 km/h NO -3,3 C 0,4 C 0,0 km/h
13.12.2010 11:00 3,3 C 72 % 1020,8 hPa 0,0 l/m 0,0 km/h O -1,3 C 3,3 C 0,0 km/h
13.12.2010 12:00 5,3 C 64 % 1020,6 hPa 0,0 l/m 3,2 km/h NO -0,9 C 5,3 C 1,8 km/h
13.12.2010 13:00 4,4 C 60 % 1020,0 hPa 0,0 l/m 1,9 km/h N-NO -2,7 C 4,4 C 1,1 km/h
13.12.2010 14:00 4,1 C 60 % 1020,0 hPa 0,0 l/m 0,0 km/h O-NO -3,0 C 4,1 C 0,0 km/h
13.12.2010 15:00 6,4 C 58 % 1020,0 hPa 0,0 l/m 0,0 km/h O -1,2 C 6,4 C 0,0 km/h
13.12.2010 16:00 1,0 C 66 % 1020,2 hPa 0,0 l/m 0,0 km/h O -4,6 C 1,0 C 0,0 km/h
13.12.2010 17:00 -3,9 C 79 % 1020,4 hPa 0,0 l/m 0,0 km/h O -7,0 C -3,9 C 0,0 km/h
13.12.2010 18:00 -5,1 C 84 % 1020,6 hPa 0,0 l/m 0,0 km/h O-SO -7,4 C -5,1 C 0,0 km/h
13.12.2010 19:00 -5,5 C 86 % 1020,8 hPa 0,0 l/m 0,0 km/h O-SO -7,5 C -5,5 C 0,0 km/h
13.12.2010 20:00 -5,5 C 86 % 1020,7 hPa 0,0 l/m 0,0 km/h SO -7,5 C -5,5 C 0,0 km/h
13.12.2010 21:00 -6,1 C 88 % 1020,4 hPa 0,0 l/m 0,0 km/h SO -7,8 C -6,1 C 0,0 km/h
13.12.2010 22:00 -6,4 C 88 % 1020,4 hPa 0,0 l/m 0,0 km/h O -8,1 C -6,4 C 0,0 km/h
13.12.2010 23:00 -6,7 C 88 % 1020,3 hPa 0,0 l/m 0,0 km/h SO -8,3 C -6,7 C 0,0 km/h
14.12.2010 00:00 -5,9 C 89 % 1019,8 hPa 0,0 l/m 0,0 km/h SO -7,4 C -5,9 C 0,0 km/h
14.12.2010 01:00 -5,4 C 89 % 1019,2 hPa 0,0 l/m 0,0 km/h SO -6,9 C -5,4 C 0,0 km/h
14.12.2010 02:00 -5,2 C 89 % 1018,7 hPa 0,0 l/m 0,0 km/h O-NO -6,7 C -5,2 C 0,0 km/h
14.12.2010 03:00 -4,4 C 89 % 1019,1 hPa 0,0 l/m 0,0 km/h N-NO -5,9 C -4,4 C 0,0 km/h
14.12.2010 04:00 -3,9 C 89 % 1018,7 hPa 0,0 l/m 0,0 km/h N -5,4 C -3,9 C 0,0 km/h
14.12.2010 05:00 -3,8 C 89 % 1018,8 hPa 0,0 l/m 0,0 km/h NO -5,3 C -3,8 C 0,0 km/h
14.12.2010 06:00 -3,6 C 89 % 1019,1 hPa 0,0 l/m 0,0 km/h NO -5,1 C -3,6 C 0,0 km/h
14.12.2010 07:00 -3,4 C 89 % 1019,6 hPa 0,0 l/m 0,0 km/h NO -4,9 C -3,4 C 0,0 km/h
14.12.2010 08:00 -3,1 C 89 % 1020,3 hPa 0,0 l/m 0,0 km/h NO -4,6 C -3,1 C 0,0 km/h
14.12.2010 09:00 -2,9 C 89 % 1021,0 hPa 0,0 l/m 0,0 km/h N -4,5 C -2,9 C 0,0 km/h
14.12.2010 10:00 -2,7 C 89 % 1021,6 hPa 0,0 l/m 0,0 km/h S-SO -4,3 C -2,7 C 0,0 km/h
14.12.2010 11:00 -1,3 C 88 % 1022,2 hPa 0,0 l/m 0,0 km/h W-NW -3,0 C -1,3 C 0,0 km/h
14.12.2010 12:00 -0,6 C 85 % 1022,4 hPa 0,0 l/m 0,0 km/h N-NO -2,8 C -0,6 C 0,0 km/h
14.12.2010 13:00 -0,3 C 79 % 1022,4 hPa 0,0 l/m 0,0 km/h N-NO -3,5 C -0,3 C 0,0 km/h
14.12.2010 14:00 -1,2 C 76 % 1023,0 hPa 0,0 l/m 0,0 km/h NO -4,9 C -1,2 C 0,0 km/h
14.12.2010 15:00 -1,9 C 78 % 1023,6 hPa 0,0 l/m 0,0 km/h N-NO -5,2 C -1,9 C 0,0 km/h
14.12.2010 16:00 -2,8 C 79 % 1024,3 hPa 0,0 l/m 0,0 km/h N-NO -5,9 C -2,8 C 0,0 km/h
14.12.2010 17:00 -3,4 C 80 % 1024,9 hPa 0,0 l/m 0,0 km/h N-NO -6,3 C -3,4 C 0,0 km/h
14.12.2010 18:00 -3,3 C 79 % 1024,9 hPa 0,0 l/m 0,0 km/h N-NO -6,4 C -3,3 C 0,0 km/h
14.12.2010 19:00 -4,7 C 84 % 1025,6 hPa 0,0 l/m 0,0 km/h N-NO -7,0 C -4,7 C 0,0 km/h
14.12.2010 20:00 -6,2 C 87 % 1025,8 hPa 0,0 l/m 0,0 km/h N-NO -8,0 C -6,2 C 0,0 km/h
14.12.2010 21:00 -5,3 C 88 % 1026,2 hPa 0,0 l/m 0,0 km/h N-NO -7,0 C -5,3 C 0,0 km/h
14.12.2010 22:00 -4,7 C 89 % 1026,3 hPa 0,0 l/m 0,0 km/h N-NO -6,2 C -4,7 C 0,0 km/h
14.12.2010 23:00 -5,2 C 88 % 1026,7 hPa 0,0 l/m 0,0 km/h N-NO -6,9 C -5,2 C 0,0 km/h
15.12.2010 00:00 -4,8 C 89 % 1026,6 hPa 0,0 l/m 0,0 km/h N-NO -6,3 C -4,8 C 0,0 km/h
15.12.2010 01:00 -4,4 C 89 % 1026,6 hPa 0,0 l/m 0,0 km/h SO -5,9 C -4,4 C 0,0 km/h
15.12.2010 02:00 -4,1 C 89 % 1026,7 hPa 0,0 l/m 0,0 km/h S-SO -5,6 C -4,1 C 0,0 km/h
15.12.2010 03:00 -4,2 C 89 % 1026,7 hPa 0,0 l/m 0,0 km/h S-SO -5,7 C -4,2 C 0,0 km/h
15.12.2010 04:00 -4,1 C 89 % 1026,7 hPa 0,0 l/m 0,0 km/h N-NO -5,6 C -4,1 C 0,0 km/h
15.12.2010 05:00 -4,1 C 88 % 1026,7 hPa 0,0 l/m 0,0 km/h N -5,8 C -4,1 C 0,0 km/h
15.12.2010 06:00 -4,1 C 85 % 1026,9 hPa 0,0 l/m 1,9 km/h NO -6,2 C -4,1 C 1,1 km/h
15.12.2010 07:00 -4,2 C 84 % 1027,1 hPa 0,0 l/m 0,0 km/h N-NO -6,5 C -4,2 C 0,0 km/h
15.12.2010 08:00 -4,2 C 84 % 1027,4 hPa 0,0 l/m 0,0 km/h N -6,5 C -4,2 C 0,0 km/h
15.12.2010 09:00 -4,2 C 84 % 1027,4 hPa 0,0 l/m 0,0 km/h W-SW -6,5 C -4,2 C 0,0 km/h
15.12.2010 10:00 -3,6 C 85 % 1027,5 hPa 0,0 l/m 0,0 km/h S-SO -5,7 C -3,6 C 0,0 km/h
15.12.2010 11:00 -2,2 C 83 % 1027,1 hPa 0,0 l/m 1,3 km/h SW -4,7 C -2,2 C 0,7 km/h
15.12.2010 12:00 0,9 C 74 % 1025,8 hPa 0,0 l/m 1,9 km/h W-SW -3,2 C 0,9 C 1,1 km/h
15.12.2010 13:00 -1,0 C 72 % 1024,9 hPa 0,0 l/m 1,9 km/h SW -5,4 C -1,0 C 1,1 km/h
15.12.2010 14:00 -1,9 C 74 % 1024,5 hPa 0,0 l/m 9,7 km/h W -5,9 C -5,3 C 5,4 km/h
15.12.2010 15:00 -2,6 C 76 % 1024,2 hPa 0,0 l/m 8,4 km/h SW -6,2 C -4,8 C 4,7 km/h
15.12.2010 16:00 -3,0 C 77 % 1024,0 hPa 0,0 l/m 7,8 km/h W-SW -6,4 C -4,6 C 4,3 km/h
15.12.2010 17:00 -3,1 C 76 % 1023,2 hPa 0,0 l/m 9,1 km/h S-SW -6,7 C -6,0 C 5,0 km/h
15.12.2010 18:00 -3,1 C 78 % 1023,2 hPa 0,0 l/m 5,8 km/h W -6,4 C -3,1 C 3,2 km/h
15.12.2010 19:00 -3,1 C 81 % 1022,6 hPa 0,0 l/m 19,4 km/h W-SW -5,9 C -13,3 C 10,8 km/h
15.12.2010 20:00 -3,8 C 86 % 1022,3 hPa 0,0 l/m 5,8 km/h W-SW -5,8 C -3,8 C 3,2 km/h
15.12.2010 21:00 -3,9 C 87 % 1021,8 hPa 0,0 l/m 7,8 km/h SW -5,7 C -5,5 C 4,3 km/h
15.12.2010 22:00 -3,9 C 87 % 1021,7 hPa 0,0 l/m 9,7 km/h W -5,7 C -7,5 C 5,4 km/h
15.12.2010 23:00 -4,1 C 88 % 1021,3 hPa 0,0 l/m 0,0 km/h W-NW -5,8 C -4,1 C 0,0 km/h
16.12.2010 00:00 -4,4 C 88 % 1020,8 hPa 0,0 l/m 0,0 km/h W-NW -6,1 C -4,4 C 0,0 km/h
16.12.2010 01:00 -4,4 C 88 % 1020,2 hPa 0,0 l/m 0,0 km/h W-NW -6,1 C -4,4 C 0,0 km/h
16.12.2010 02:00 -4,6 C 89 % 1019,7 hPa 0,0 l/m 0,0 km/h N -6,1 C -4,6 C 0,0 km/h
16.12.2010 03:00 -4,4 C 89 % 1019,3 hPa 0,0 l/m 0,0 km/h N -5,9 C -4,4 C 0,0 km/h
16.12.2010 04:00 -4,9 C 89 % 1019,1 hPa 0,0 l/m 0,0 km/h N -6,4 C -4,9 C 0,0 km/h
16.12.2010 05:00 -5,0 C 89 % 1018,9 hPa 0,0 l/m 0,0 km/h N -6,5 C -5,0 C 0,0 km/h
16.12.2010 06:00 -5,5 C 89 % 1018,2 hPa 0,0 l/m 0,0 km/h N -7,0 C -5,5 C 0,0 km/h
16.12.2010 07:00 -9,1 C 88 % 1017,3 hPa 0,0 l/m 0,0 km/h NO -10,7 C -9,1 C 0,0 km/h
16.12.2010 08:00 -7,4 C 89 % 1017,3 hPa 0,0 l/m 0,0 km/h O -8,9 C -7,4 C 0,0 km/h
16.12.2010 09:00 -5,2 C 89 % 1017,0 hPa 0,0 l/m 0,0 km/h SW -6,7 C -5,2 C 0,0 km/h
16.12.2010 10:00 -2,9 C 86 % 1016,2 hPa 0,0 l/m 16,8 km/h W-SW -4,9 C -11,6 C 9,4 km/h
16.12.2010 11:00 -0,7 C 73 % 1014,9 hPa 0,0 l/m 20,1 km/h S-SW -4,9 C -10,6 C 11,2 km/h
16.12.2010 12:00 -1,7 C 72 % 1013,9 hPa 0,0 l/m 24,0 km/h W-SW -6,1 C -13,6 C 13,3 km/h
16.12.2010 13:00 -1,7 C 72 % 1012,5 hPa 0,0 l/m 14,3 km/h W-SW -6,1 C -8,6 C 7,9 km/h
16.12.2010 14:00 -2,1 C 72 % 1011,0 hPa 0,0 l/m 12,3 km/h SW -6,5 C -7,6 C 6,8 km/h
16.12.2010 15:00 -2,6 C 72 % 1010,1 hPa 0,0 l/m 13,6 km/h W-SW -6,9 C -9,2 C 7,6 km/h
16.12.2010 16:00 -2,8 C 73 % 1008,9 hPa 0,0 l/m 1,9 km/h S-SW -6,9 C -2,8 C 1,1 km/h
16.12.2010 17:00 -2,1 C 69 % 1007,2 hPa 0,0 l/m 29,8 km/h S -7,0 C -16,3 C 16,6 km/h
16.12.2010 18:00 -1,9 C 78 % 1005,5 hPa 0,0 l/m 0,0 km/h S-SW -5,2 C -1,9 C 0,0 km/h
16.12.2010 19:00 -1,4 C 84 % 1004,0 hPa 0,0 l/m 5,8 km/h S-SW -3,7 C -1,4 C 3,2 km/h
16.12.2010 20:00 -0,7 C 85 % 1002,2 hPa 0,0 l/m 34,3 km/h W -2,9 C -15,6 C 19,1 km/h
16.12.2010 21:00 0,3 C 80 % 1000,5 hPa 0,4 l/m 44,7 km/h SW -2,7 C -16,4 C 24,8 km/h
16.12.2010 22:00 0,8 C 81 % 999,0 hPa 0,0 l/m 29,8 km/h SW -2,1 C -12,2 C 16,6 km/h
16.12.2010 23:00 1,3 C 81 % 997,1 hPa 0,0 l/m 44,1 km/h SW -1,6 C -14,8 C 24,5 km/h
17.12.2010 00:00 1,6 C 83 % 995,5 hPa 0,0 l/m 32,4 km/h S -1,0 C -11,8 C 18,0 km/h
17.12.2010 01:00 2,0 C 81 % 994,0 hPa 0,0 l/m 38,9 km/h S-SW -0,9 C -12,8 C 21,6 km/h
17.12.2010 02:00 1,3 C 87 % 992,8 hPa 0,0 l/m 33,7 km/h W-SW -0,6 C -12,6 C 18,7 km/h
17.12.2010 03:00 1,1 C 88 % 991,8 hPa 0,0 l/m 33,0 km/h W-SW -0,7 C -12,7 C 18,4 km/h
17.12.2010 04:00 1,3 C 88 % 990,7 hPa 0,0 l/m 30,5 km/h SW -0,5 C -11,7 C 16,9 km/h
17.12.2010 05:00 1,6 C 88 % 989,6 hPa 0,0 l/m 21,4 km/h W-SW -0,2 C -8,2 C 11,9 km/h
17.12.2010 06:00 1,5 C 88 % 989,5 hPa 0,0 l/m 24,0 km/h W-SW -0,3 C -9,3 C 13,3 km/h
17.12.2010 07:00 1,2 C 88 % 989,8 hPa 0,0 l/m 10,4 km/h N -0,6 C -2,4 C 5,8 km/h
17.12.2010 08:00 0,3 C 88 % 991,2 hPa 0,0 l/m 0,0 km/h N-NO -1,4 C 0,3 C 0,0 km/h
17.12.2010 09:00 -0,2 C 88 % 992,8 hPa 0,0 l/m 0,0 km/h N-NO -1,9 C -0,2 C 0,0 km/h
17.12.2010 10:00 -0,9 C 88 % 994,1 hPa 0,0 l/m 0,0 km/h N-NO -2,6 C -0,9 C 0,0 km/h
17.12.2010 11:00 -0,9 C 88 % 994,8 hPa 0,0 l/m 0,0 km/h NO -2,6 C -0,9 C 0,0 km/h
17.12.2010 12:00 -0,8 C 86 % 995,5 hPa 0,0 l/m 0,0 km/h N -2,8 C -0,8 C 0,0 km/h
17.12.2010 13:00 -0,5 C 82 % 995,3 hPa 0,0 l/m 0,0 km/h N-NO -3,2 C -0,5 C 0,0 km/h
17.12.2010 14:00 0,1 C 82 % 995,5 hPa 0,0 l/m 0,0 km/h N-NO -2,6 C 0,1 C 0,0 km/h
17.12.2010 15:00 -1,4 C 84 % 995,8 hPa 0,0 l/m 0,0 km/h N-NO -3,7 C -1,4 C 0,0 km/h
17.12.2010 16:00 -2,1 C 85 % 996,3 hPa 0,0 l/m 0,0 km/h N-NO -4,3 C -2,1 C 0,0 km/h
17.12.2010 17:00 -3,6 C 87 % 996,8 hPa 0,0 l/m 0,0 km/h N-NO -5,4 C -3,6 C 0,0 km/h
17.12.2010 18:00 -3,9 C 88 % 997,2 hPa 0,0 l/m 0,0 km/h O -5,6 C -3,9 C 0,0 km/h
17.12.2010 19:00 -3,5 C 89 % 997,1 hPa 0,0 l/m 0,0 km/h O -5,0 C -3,5 C 0,0 km/h
17.12.2010 20:00 -3,3 C 89 % 997,4 hPa 0,0 l/m 0,0 km/h O -4,8 C -3,3 C 0,0 km/h
17.12.2010 21:00 -3,5 C 89 % 997,8 hPa 0,0 l/m 0,0 km/h O -5,0 C -3,5 C 0,0 km/h
17.12.2010 22:00 -3,4 C 89 % 997,7 hPa 0,0 l/m 0,0 km/h O -4,9 C -3,4 C 0,0 km/h
17.12.2010 23:00 -3,8 C 89 % 997,9 hPa 0,0 l/m 0,0 km/h O -5,3 C -3,8 C 0,0 km/h
18.12.2010 00:00 -3,9 C 89 % 997,6 hPa 0,0 l/m 0,0 km/h O -5,4 C -3,9 C 0,0 km/h
18.12.2010 01:00 -3,1 C 87 % 997,9 hPa 0,0 l/m 0,0 km/h S -4,9 C -3,1 C 0,0 km/h
18.12.2010 02:00 -3,4 C 87 % 997,8 hPa 0,0 l/m 0,0 km/h S-SW -5,2 C -3,4 C 0,0 km/h
18.12.2010 03:00 -3,3 C 82 % 997,9 hPa 0,0 l/m 0,0 km/h S -5,9 C -3,3 C 0,0 km/h
18.12.2010 04:00 -3,1 C 79 % 997,4 hPa 0,0 l/m 20,1 km/h S-SW -6,2 C -13,7 C 11,2 km/h
18.12.2010 05:00 -3,0 C 78 % 997,7 hPa 0,0 l/m 20,1 km/h S-SW -6,3 C -13,6 C 11,2 km/h
18.12.2010 06:00 -2,7 C 75 % 997,7 hPa 0,0 l/m 7,8 km/h W-SW -6,5 C -4,3 C 4,3 km/h
18.12.2010 07:00 -2,4 C 77 % 998,1 hPa 0,0 l/m 16,8 km/h W-SW -5,9 C -11,0 C 9,4 km/h
18.12.2010 08:00 -2,7 C 80 % 998,7 hPa 0,0 l/m 16,8 km/h W-SW -5,7 C -11,4 C 9,4 km/h
18.12.2010 09:00 -2,4 C 78 % 999,5 hPa 0,0 l/m 7,1 km/h S-SW -5,7 C -3,2 C 4,0 km/h
18.12.2010 10:00 -1,9 C 79 % 999,9 hPa 0,0 l/m 21,4 km/h W-SW -5,0 C -12,8 C 11,9 km/h
18.12.2010 11:00 -1,6 C 79 % 1000,1 hPa 0,0 l/m 14,3 km/h S-SW -4,8 C -8,5 C 7,9 km/h
18.12.2010 12:00 -0,8 C 78 % 1000,0 hPa 0,0 l/m 18,1 km/h W-SW -4,1 C -9,7 C 10,1 km/h
18.12.2010 13:00 -1,2 C 82 % 1000,0 hPa 0,0 l/m 22,7 km/h S-SW -3,9 C -12,4 C 12,6 km/h
18.12.2010 14:00 -0,8 C 81 % 1000,1 hPa 0,0 l/m 24,6 km/h SW -3,6 C -12,6 C 13,7 km/h
18.12.2010 15:00 -0,7 C 81 % 1000,3 hPa 0,0 l/m 14,3 km/h SW -3,5 C -7,4 C 7,9 km/h
18.12.2010 16:00 -1,2 C 82 % 1000,4 hPa 0,0 l/m 0,0 km/h SO -3,9 C -1,2 C 0,0 km/h
18.12.2010 17:00 -3,1 C 84 % 1000,4 hPa 0,0 l/m 0,0 km/h O-NO -5,4 C -3,1 C 0,0 km/h
18.12.2010 18:00 -4,4 C 88 % 1000,1 hPa 0,0 l/m 0,0 km/h N -6,1 C -4,4 C 0,0 km/h
18.12.2010 19:00 -4,1 C 88 % 1000,0 hPa 0,0 l/m 0,0 km/h SO -5,8 C -4,1 C 0,0 km/h
18.12.2010 20:00 -1,5 C 83 % 999,7 hPa 0,0 l/m 15,6 km/h SO -4,0 C -9,2 C 8,6 km/h
18.12.2010 21:00 -0,9 C 78 % 999,3 hPa 0,0 l/m 1,9 km/h SO -4,2 C -0,9 C 1,1 km/h
18.12.2010 22:00 -0,7 C 77 % 998,6 hPa 0,0 l/m 1,9 km/h SO -4,2 C -0,7 C 1,1 km/h
18.12.2010 23:00 -0,6 C 77 % 997,7 hPa 0,0 l/m 0,0 km/h S-SO -4,1 C -0,6 C 0,0 km/h
19.12.2010 00:00 0,6 C 72 % 996,6 hPa 0,0 l/m 10,4 km/h S-SO -3,9 C -3,1 C 5,8 km/h
19.12.2010 01:00 1,4 C 69 % 996,4 hPa 0,0 l/m 0,0 km/h W-SW -3,7 C 1,4 C 0,0 km/h
19.12.2010 02:00 0,8 C 86 % 997,6 hPa 0,0 l/m 14,9 km/h S-SW -1,3 C -6,0 C 8,3 km/h
19.12.2010 03:00 0,3 C 88 % 997,9 hPa 0,0 l/m 24,0 km/h S -1,4 C -10,9 C 13,3 km/h
19.12.2010 04:00 1,2 C 88 % 998,5 hPa 0,0 l/m 21,4 km/h S -0,6 C -8,7 C 11,9 km/h
19.12.2010 05:00 1,6 C 87 % 998,7 hPa 0,0 l/m 25,3 km/h S -0,3 C -9,7 C 14,0 km/h
19.12.2010 06:00 1,9 C 86 % 998,9 hPa 0,0 l/m 8,4 km/h S -0,2 C -0,0 C 4,7 km/h
19.12.2010 07:00 2,2 C 87 % 998,8 hPa 0,0 l/m 2,6 km/h S 0,3 C 2,2 C 1,4 km/h
19.12.2010 08:00 2,1 C 88 % 998,8 hPa 0,0 l/m 3,9 km/h S 0,3 C 2,1 C 2,2 km/h
19.12.2010 09:00 2,6 C 87 % 998,4 hPa 0,4 l/m 3,2 km/h S-SO 0,7 C 2,6 C 1,8 km/h
19.12.2010 10:00 3,4 C 84 % 997,6 hPa 0,0 l/m 0,0 km/h O-SO 1,0 C 3,4 C 0,0 km/h
19.12.2010 11:00 3,1 C 86 % 996,5 hPa 0,0 l/m 0,0 km/h O-SO 1,0 C 3,1 C 0,0 km/h
19.12.2010 12:00 3,6 C 86 % 996,0 hPa 0,0 l/m 0,0 km/h SO 1,5 C 3,6 C 0,0 km/h
19.12.2010 13:00 3,8 C 84 % 995,4 hPa 0,4 l/m 0,0 km/h SO 1,4 C 3,8 C 0,0 km/h
19.12.2010 14:00 3,4 C 86 % 994,8 hPa 0,0 l/m 0,0 km/h NO 1,3 C 3,4 C 0,0 km/h
19.12.2010 15:00 4,1 C 85 % 994,3 hPa 0,0 l/m 0,0 km/h N-NO 1,8 C 4,1 C 0,0 km/h
19.12.2010 16:00 3,4 C 84 % 994,1 hPa 0,0 l/m 0,0 km/h SW 1,0 C 3,4 C 0,0 km/h
19.12.2010 17:00 6,6 C 74 % 993,4 hPa 0,0 l/m 0,0 km/h S-SW 2,3 C 6,6 C 0,0 km/h
19.12.2010 18:00 7,1 C 71 % 993,2 hPa 0,0 l/m 23,3 km/h W-SW 2,2 C -1,6 C 13,0 km/h
19.12.2010 19:00 7,9 C 67 % 993,3 hPa 0,0 l/m 11,0 km/h W 2,2 C 4,7 C 6,1 km/h
19.12.2010 20:00 7,8 C 66 % 994,0 hPa 0,0 l/m 10,4 km/h W-SW 1,9 C 4,9 C 5,8 km/h
19.12.2010 21:00 7,6 C 68 % 994,7 hPa 0,0 l/m 22,7 km/h W-SW 2,1 C -0,7 C 12,6 km/h
19.12.2010 22:00 7,2 C 71 % 995,7 hPa 0,0 l/m 26,6 km/h W 2,3 C -2,4 C 14,8 km/h
19.12.2010 23:00 6,2 C 78 % 997,2 hPa 0,0 l/m 15,6 km/h W-SW 2,7 C 0,2 C 8,6 km/h
Min-Datum _ 16.12.10 13.12.10 17.12.10 - 13.12.10 - 16.12.10 16.12.10 13.12.10
_ Min-Zeit 07:30 15:30 06:30 - 00:30 - 07:30 21:30 00:30
Minimum _ -9,1 C 58 % 989,5 hPa - 0,0 km/h - -10,7 C -16,4 C 0,0 km/h
Max-Datum _ 19.12.10 13.12.10 15.12.10 16.12.10 16.12.10 - 19.12.10 19.12.10 16.12.10
_ Max-Zeit 19:30 02:30 10:30 21:30 21:30 - 23:30 17:30 21:30
Maximum _ 7,9 C 89 % 1027,5 hPa 0,4 l/m 44,7 km/h
SW
- 2,7 C 6,6 C 24,8 km/h
SW
Durchschnitt _ -1,4 C 83 % 1009,8 hPa #1,1 l/m 6,3 km/h N-NO -4,0 C -4,0 C 3,5 km/h